createdAt,value
2022-12-18T00:00:08.276Z,18.30
2022-12-18T00:02:41.841Z,13.43
2022-12-18T00:05:10.265Z,15.90
2022-12-18T00:07:38.980Z,18.40
2022-12-18T00:10:08.239Z,18.23
2022-12-18T00:12:36.236Z,17.47
2022-12-18T00:15:06.260Z,14.10
2022-12-18T00:17:34.288Z,13.77
2022-12-18T00:20:02.350Z,16.27
2022-12-18T00:22:30.355Z,17.43
2022-12-18T00:24:58.317Z,17.50
2022-12-18T00:27:26.277Z,16.30
2022-12-18T00:29:54.223Z,15.97
2022-12-18T00:32:23.519Z,16.40
2022-12-18T00:34:51.475Z,16.30
2022-12-18T00:37:20.352Z,17.63
2022-12-18T00:39:52.482Z,14.73
2022-12-18T00:42:38.925Z,18.33
2022-12-18T00:45:12.649Z,16.50
2022-12-18T00:47:42.842Z,14.90
2022-12-18T00:50:11.670Z,17.27
2022-12-18T00:52:39.621Z,19.73
2022-12-18T00:55:08.141Z,15.83
2022-12-18T00:57:36.389Z,14.90
2022-12-18T01:00:07.279Z,14.37
2022-12-18T01:02:37.112Z,21.60
2022-12-18T01:05:07.533Z,15.27
2022-12-18T01:07:35.620Z,15.50
2022-12-18T01:10:05.470Z,16.33
2022-12-18T01:12:33.742Z,16.87
2022-12-18T01:15:01.756Z,14.50
2022-12-18T01:17:29.729Z,16.10
2022-12-18T01:19:57.700Z,16.00
2022-12-18T01:22:26.998Z,17.13
2022-12-18T01:24:54.962Z,18.30
2022-12-18T01:27:24.483Z,16.27
2022-12-18T01:29:53.668Z,18.53
2022-12-18T01:32:21.649Z,17.10
2022-12-18T01:34:49.663Z,14.37
2022-12-18T01:37:17.666Z,18.13
2022-12-18T01:39:47.023Z,14.67
2022-12-18T01:42:16.916Z,15.90
2022-12-18T01:45:00.987Z,14.40
2022-12-18T01:47:33.909Z,15.63
2022-12-18T01:50:04.739Z,15.87
2022-12-18T01:52:35.542Z,19.43
2022-12-18T01:55:06.993Z,14.97
2022-12-18T01:57:36.842Z,14.20
2022-12-18T02:00:08.545Z,15.83
2022-12-18T02:02:43.789Z,13.87
2022-12-18T02:05:13.568Z,15.93
2022-12-18T02:07:51.839Z,13.63
2022-12-18T02:10:28.948Z,13.97
2022-12-18T02:13:04.826Z,14.47
2022-12-18T02:15:41.234Z,15.13
2022-12-18T02:18:13.085Z,15.83
2022-12-18T02:20:47.201Z,16.00
2022-12-18T02:23:30.496Z,14.63
2022-12-18T02:26:14.910Z,13.00
2022-12-18T02:28:47.558Z,19.33
2022-12-18T02:31:20.079Z,14.70
2022-12-18T02:33:50.176Z,15.03
2022-12-18T02:36:20.494Z,16.70
2022-12-18T02:38:49.774Z,15.10
2022-12-18T02:41:21.006Z,17.23
2022-12-18T02:43:49.828Z,14.83
2022-12-18T02:46:34.572Z,15.13
2022-12-18T02:49:16.026Z,12.63
2022-12-18T02:51:52.602Z,12.40
2022-12-18T02:54:32.391Z,15.43
2022-12-18T02:57:10.281Z,12.93
2022-12-18T02:59:43.075Z,13.30
2022-12-18T03:02:19.914Z,16.10
2022-12-18T03:04:55.131Z,13.43
2022-12-18T03:07:29.624Z,14.20
2022-12-18T03:10:00.831Z,15.07
2022-12-18T03:12:34.417Z,14.33
2022-12-18T03:15:06.105Z,12.10
2022-12-18T03:17:35.944Z,13.37
2022-12-18T03:20:09.591Z,13.13
2022-12-18T03:22:40.352Z,15.20
2022-12-18T03:25:13.031Z,10.53
2022-12-18T03:27:46.506Z,14.83
2022-12-18T03:30:19.228Z,13.90
2022-12-18T03:32:55.481Z,14.33
2022-12-18T03:35:32.497Z,10.47
2022-12-18T03:38:00.565Z,14.30
2022-12-18T03:40:34.988Z,14.47
2022-12-18T03:43:10.891Z,15.17
2022-12-18T03:45:44.827Z,11.13
2022-12-18T03:48:21.353Z,12.80
2022-12-18T03:50:57.793Z,12.87
2022-12-18T03:53:36.217Z,12.57
2022-12-18T03:56:07.017Z,12.53
2022-12-18T03:58:43.040Z,13.70
2022-12-18T04:01:21.282Z,14.47
2022-12-18T04:03:51.627Z,14.37
2022-12-18T04:06:22.102Z,15.90
2022-12-18T04:08:50.349Z,13.60
2022-12-18T04:11:22.651Z,15.07
2022-12-18T04:13:52.016Z,10.63
2022-12-18T04:16:24.459Z,22.60
2022-12-18T04:18:56.163Z,12.80
2022-12-18T04:21:26.221Z,14.70
2022-12-18T04:23:54.949Z,13.20
2022-12-18T04:26:24.729Z,15.80
2022-12-18T04:29:17.201Z,13.83
2022-12-18T04:31:45.244Z,13.67
2022-12-18T04:34:13.376Z,17.27
2022-12-18T04:36:48.906Z,14.53
2022-12-18T04:39:17.400Z,16.17
2022-12-18T04:41:46.231Z,13.77
2022-12-18T04:44:16.805Z,13.70
2022-12-18T04:46:45.519Z,15.60
2022-12-18T04:49:13.640Z,14.97
2022-12-18T04:51:41.859Z,13.93
2022-12-18T04:54:09.854Z,16.60
2022-12-18T04:56:37.972Z,17.20
2022-12-18T04:59:05.954Z,15.33
2022-12-18T05:01:35.598Z,16.43
2022-12-18T05:04:05.322Z,15.20
2022-12-18T05:06:33.362Z,16.47
2022-12-18T05:09:01.368Z,14.67
2022-12-18T05:11:29.489Z,11.47
2022-12-18T05:13:57.563Z,15.03
2022-12-18T05:16:25.588Z,13.83
2022-12-18T05:18:55.033Z,12.40
2022-12-18T05:21:23.053Z,15.70
2022-12-18T05:23:50.994Z,16.47
2022-12-18T05:26:20.198Z,13.70
2022-12-18T05:28:48.188Z,15.73
2022-12-18T05:31:16.261Z,14.83
2022-12-18T05:33:44.643Z,14.27
2022-12-18T05:36:14.035Z,15.73
2022-12-18T05:38:42.856Z,13.17
2022-12-18T05:41:11.704Z,13.73
2022-12-18T05:43:41.866Z,15.50
2022-12-18T05:46:13.978Z,12.93
2022-12-18T05:48:42.030Z,14.70
2022-12-18T05:51:13.663Z,12.20
2022-12-18T05:53:41.913Z,13.07
2022-12-18T05:56:12.514Z,12.60
2022-12-18T05:58:40.497Z,12.60
2022-12-18T06:01:11.014Z,15.27
2022-12-18T06:03:39.494Z,13.00
2022-12-18T06:06:16.707Z,13.93
2022-12-18T06:08:46.674Z,15.03
2022-12-18T06:11:15.435Z,13.00
2022-12-18T06:13:43.379Z,13.23
2022-12-18T06:16:11.581Z,12.60
2022-12-18T06:18:39.750Z,15.33
2022-12-18T06:21:07.869Z,12.77
2022-12-18T06:23:37.881Z,12.10
2022-12-18T06:26:07.407Z,13.00
2022-12-18T06:28:35.610Z,13.30
2022-12-18T06:31:05.513Z,14.00
2022-12-18T06:33:34.051Z,12.57
2022-12-18T06:36:03.492Z,17.40
2022-12-18T06:38:31.825Z,17.30
2022-12-18T06:41:01.265Z,15.17
2022-12-18T06:43:29.491Z,16.53
2022-12-18T06:46:01.386Z,19.17
2022-12-18T06:48:29.811Z,24.00
2022-12-18T06:50:58.388Z,14.83
2022-12-18T06:53:26.393Z,14.80
2022-12-18T06:55:55.202Z,16.00
2022-12-18T06:58:24.684Z,14.93
2022-12-18T07:00:52.817Z,17.80
2022-12-18T07:03:20.929Z,12.47
2022-12-18T07:05:48.949Z,12.47
2022-12-18T07:08:16.912Z,16.43
2022-12-18T07:10:48.238Z,16.13
2022-12-18T07:13:18.076Z,15.20
2022-12-18T07:15:47.367Z,17.27
2022-12-18T07:18:15.341Z,14.60
2022-12-18T07:20:43.431Z,17.93
2022-12-18T07:23:11.406Z,16.13
2022-12-18T07:25:40.361Z,19.20
2022-12-18T07:28:11.689Z,16.30
2022-12-18T07:30:43.695Z,14.47
2022-12-18T07:33:13.057Z,14.90
2022-12-18T07:35:41.161Z,17.03
2022-12-18T07:38:09.092Z,16.80
2022-12-18T07:40:37.176Z,16.00
2022-12-18T07:43:05.147Z,15.23
2022-12-18T07:45:33.176Z,17.93
2022-12-18T07:48:01.186Z,17.77
2022-12-18T07:50:30.630Z,16.30
2022-12-18T07:52:58.727Z,15.30
2022-12-18T07:55:27.072Z,14.87
2022-12-18T07:58:00.658Z,15.33
2022-12-18T08:00:29.115Z,21.07
2022-12-18T08:02:57.203Z,20.70
2022-12-18T08:05:25.404Z,15.83
2022-12-18T08:07:54.965Z,13.90
2022-12-18T08:10:23.371Z,17.30
2022-12-18T08:12:51.944Z,18.50
2022-12-18T08:15:20.089Z,20.23
2022-12-18T08:17:48.090Z,17.20
2022-12-18T08:20:16.177Z,15.43
2022-12-18T08:22:44.185Z,17.30
2022-12-18T08:25:13.479Z,18.17
2022-12-18T08:27:41.526Z,14.50
2022-12-18T08:30:11.011Z,16.07
2022-12-18T08:32:39.013Z,15.37
2022-12-18T08:35:08.879Z,13.23
2022-12-18T08:37:36.922Z,17.20
2022-12-18T08:40:05.648Z,14.03
2022-12-18T08:42:52.598Z,13.90
2022-12-18T08:45:20.634Z,13.87
2022-12-18T08:47:48.656Z,15.60
2022-12-18T08:50:16.828Z,17.90
2022-12-18T08:52:45.600Z,15.33
2022-12-18T08:55:15.121Z,17.67
2022-12-18T08:57:44.508Z,14.63
2022-12-18T09:00:14.668Z,13.80
2022-12-18T09:02:43.253Z,13.33
2022-12-18T09:05:11.359Z,13.40
2022-12-18T09:07:39.447Z,15.20
2022-12-18T09:10:08.466Z,15.63
2022-12-18T09:12:36.467Z,14.40
2022-12-18T09:15:06.865Z,13.40
2022-12-18T09:17:34.886Z,16.23
2022-12-18T09:20:02.894Z,17.13
2022-12-18T09:22:30.837Z,15.17
2022-12-18T09:24:58.777Z,15.27
2022-12-18T09:27:26.765Z,13.87
2022-12-18T09:29:54.717Z,15.90
2022-12-18T09:32:24.032Z,13.37
2022-12-18T09:34:52.047Z,18.57
2022-12-18T09:37:20.063Z,16.93
2022-12-18T09:39:48.095Z,15.10
2022-12-18T09:42:21.804Z,16.80
2022-12-18T09:44:52.734Z,17.53
2022-12-18T09:47:25.515Z,17.20
2022-12-18T09:49:57.085Z,21.30
2022-12-18T09:52:29.620Z,17.43
2022-12-18T09:55:02.535Z,14.73
2022-12-18T09:57:34.333Z,17.50
2022-12-18T10:00:08.636Z,21.60
2022-12-18T10:02:41.003Z,13.80
2022-12-18T10:05:12.971Z,17.57
2022-12-18T10:07:54.730Z,19.10
2022-12-18T10:10:30.715Z,16.43
2022-12-18T10:13:05.565Z,18.27
2022-12-18T10:15:38.370Z,17.57
2022-12-18T10:18:22.268Z,17.67
2022-12-18T10:20:53.338Z,17.20
2022-12-18T10:23:27.191Z,19.40
2022-12-18T10:26:00.399Z,15.97
2022-12-18T10:28:29.169Z,15.67
2022-12-18T10:30:57.342Z,14.90
2022-12-18T10:33:30.795Z,16.10
2022-12-18T10:35:58.906Z,17.07
2022-12-18T10:38:28.647Z,16.80
2022-12-18T10:40:58.370Z,15.80
2022-12-18T10:43:29.256Z,15.30
2022-12-18T10:46:19.780Z,16.90
2022-12-18T10:48:55.693Z,15.47
2022-12-18T10:51:27.013Z,15.60
2022-12-18T10:53:58.375Z,16.53
2022-12-18T10:56:28.926Z,22.57
2022-12-18T10:59:02.899Z,15.63
2022-12-18T11:01:48.544Z,15.93
2022-12-18T11:04:22.205Z,17.23
2022-12-18T11:06:58.941Z,19.43
2022-12-18T11:09:30.178Z,15.87
2022-12-18T11:12:00.897Z,19.77
2022-12-18T11:14:30.965Z,13.27
2022-12-18T11:19:58.431Z,19.07
2022-12-18T11:22:28.668Z,19.27
2022-12-18T11:27:54.519Z,20.93
2022-12-18T11:30:29.330Z,18.50
2022-12-18T11:33:06.538Z,18.80
2022-12-18T11:35:44.208Z,21.30
2022-12-18T11:38:23.747Z,23.40
2022-12-18T11:40:57.776Z,17.70
2022-12-18T11:43:30.600Z,21.00
2022-12-18T11:46:04.520Z,17.37
2022-12-18T11:48:39.262Z,20.87
2022-12-18T11:51:16.162Z,18.90
2022-12-18T11:53:44.256Z,22.77
2022-12-18T11:56:30.368Z,19.50
2022-12-18T11:59:08.603Z,18.83
2022-12-18T12:01:47.420Z,19.97
2022-12-18T12:04:50.838Z,16.23
2022-12-18T12:07:36.946Z,23.13
2022-12-18T12:10:18.062Z,20.00
2022-12-18T12:13:02.055Z,17.27
2022-12-18T12:15:41.898Z,23.13
2022-12-18T12:18:17.938Z,22.47
2022-12-18T12:20:54.382Z,23.40
2022-12-18T12:23:35.677Z,23.37
2022-12-18T12:26:08.192Z,25.00
2022-12-18T12:28:54.589Z,22.27
2022-12-18T12:31:34.844Z,20.03
2022-12-18T12:34:13.242Z,22.67
2022-12-18T12:36:53.818Z,18.77
2022-12-18T12:39:29.200Z,27.00
2022-12-18T12:42:15.019Z,27.77
2022-12-18T12:44:51.241Z,19.83
2022-12-18T12:47:26.971Z,25.00
2022-12-18T12:49:56.438Z,22.43
2022-12-18T12:52:32.660Z,26.13
2022-12-18T12:55:04.314Z,22.37
2022-12-18T12:57:39.089Z,27.90
2022-12-18T13:00:11.342Z,21.67
2022-12-18T13:02:48.278Z,21.10
2022-12-18T13:05:23.462Z,21.80
2022-12-18T13:07:55.866Z,21.00
2022-12-18T13:10:33.021Z,23.80
2022-12-18T13:13:02.585Z,27.23
2022-12-18T13:15:40.663Z,21.27
2022-12-18T13:18:24.478Z,22.50
2022-12-18T13:21:04.429Z,20.93
2022-12-18T13:23:35.818Z,26.27
2022-12-18T13:26:36.851Z,21.13
2022-12-18T13:29:07.057Z,25.03
2022-12-18T13:32:03.077Z,23.17
2022-12-18T13:34:32.743Z,23.40
2022-12-18T13:37:34.800Z,23.90
2022-12-18T13:40:04.574Z,27.03
2022-12-18T13:43:00.648Z,21.70
2022-12-18T13:45:47.967Z,24.10
2022-12-18T13:48:24.775Z,25.17
2022-12-18T13:51:00.754Z,29.20
2022-12-18T13:53:32.494Z,24.73
2022-12-18T13:56:01.151Z,20.73
2022-12-18T13:58:29.180Z,22.57
2022-12-18T14:01:00.305Z,29.40
2022-12-18T14:03:30.066Z,27.77
2022-12-18T14:06:08.091Z,23.20
2022-12-18T14:08:41.677Z,23.53
2022-12-18T14:11:22.297Z,22.73
2022-12-18T14:13:51.373Z,23.80
2022-12-18T14:16:20.830Z,24.47
2022-12-18T14:18:52.723Z,26.70
2022-12-18T14:21:25.352Z,28.20
2022-12-18T14:24:06.808Z,27.17
2022-12-18T14:26:35.196Z,26.50
2022-12-18T14:29:20.611Z,24.77
2022-12-18T14:32:09.355Z,23.53
2022-12-18T14:34:40.154Z,24.67
2022-12-18T14:37:11.214Z,26.03
2022-12-18T14:39:39.290Z,22.93
2022-12-18T14:42:07.411Z,25.40
2022-12-18T14:44:50.696Z,26.90
2022-12-18T14:47:24.800Z,25.23
2022-12-18T14:49:52.908Z,26.27
2022-12-18T14:52:28.262Z,28.83
2022-12-18T14:54:56.326Z,31.63
2022-12-18T14:57:27.471Z,27.57
2022-12-18T14:59:55.569Z,32.20
2022-12-18T15:02:27.374Z,26.53
2022-12-18T15:05:06.122Z,35.60
2022-12-18T15:07:43.555Z,28.73
2022-12-18T15:10:15.474Z,23.30
2022-12-18T15:12:45.641Z,27.70
2022-12-18T15:15:49.001Z,27.70
2022-12-18T15:18:21.061Z,27.00
2022-12-18T15:20:51.634Z,27.07
2022-12-18T15:23:22.606Z,28.40
2022-12-18T15:25:57.273Z,26.50
2022-12-18T15:28:27.702Z,26.70
2022-12-18T15:31:07.960Z,29.03
2022-12-18T15:33:39.614Z,26.57
2022-12-18T15:36:11.473Z,28.23
2022-12-18T15:38:39.488Z,31.93
2022-12-18T15:41:13.120Z,29.30
2022-12-18T15:43:41.540Z,27.10
2022-12-18T15:46:15.806Z,29.13
2022-12-18T15:48:47.455Z,31.40
2022-12-18T15:51:20.929Z,31.53
2022-12-18T15:53:50.707Z,29.37
2022-12-18T15:56:39.662Z,30.23
2022-12-18T15:59:13.023Z,34.30
2022-12-18T16:01:42.813Z,33.37
2022-12-18T16:04:13.909Z,31.80
2022-12-18T16:09:35.829Z,37.80
2022-12-18T16:12:04.154Z,31.43
2022-12-18T16:14:33.604Z,39.23
2022-12-18T16:17:03.690Z,34.60
2022-12-18T16:19:33.164Z,34.30
2022-12-18T16:22:01.210Z,34.70
2022-12-18T16:24:31.265Z,34.60
2022-12-18T16:27:00.978Z,31.90
2022-12-18T16:29:30.294Z,35.07
2022-12-18T16:31:59.833Z,34.40
2022-12-18T16:34:29.925Z,33.13
2022-12-18T16:37:05.209Z,32.23
2022-12-18T16:39:35.201Z,33.37
2022-12-18T16:42:05.747Z,35.93
2022-12-18T16:44:34.275Z,41.10
2022-12-18T16:47:03.208Z,32.37
2022-12-18T16:49:31.829Z,32.57
2022-12-18T16:52:01.250Z,34.37
2022-12-18T16:54:30.454Z,33.13
2022-12-18T16:56:58.759Z,36.03
2022-12-18T16:59:27.548Z,35.83
2022-12-18T17:01:57.404Z,39.63
2022-12-18T17:04:25.601Z,35.50
2022-12-18T17:06:53.841Z,30.73
2022-12-18T17:09:25.044Z,37.03
2022-12-18T17:11:53.638Z,35.57
2022-12-18T17:14:24.043Z,36.40
2022-12-18T17:17:19.166Z,34.50
2022-12-18T17:19:40.377Z,35.10
2022-12-18T17:22:09.476Z,35.83
2022-12-18T17:24:38.951Z,32.23
2022-12-18T17:27:08.532Z,37.10
2022-12-18T17:29:37.639Z,36.30
2022-12-18T17:32:07.111Z,36.80
2022-12-18T17:34:36.537Z,36.27
2022-12-18T17:37:04.607Z,35.57
2022-12-18T17:39:33.428Z,39.20
2022-12-18T17:42:03.973Z,36.77
2022-12-18T17:44:34.227Z,34.90
2022-12-18T17:47:02.409Z,35.27
2022-12-18T17:49:31.000Z,34.70
2022-12-18T17:51:59.041Z,35.43
2022-12-18T17:54:27.208Z,36.70
2022-12-18T17:56:55.256Z,35.90
2022-12-18T17:59:24.691Z,38.63
2022-12-18T18:01:52.914Z,36.93
2022-12-18T18:04:21.970Z,39.63
2022-12-18T18:06:50.115Z,35.13
2022-12-18T18:09:18.163Z,39.83
2022-12-18T18:12:04.248Z,74.10
2022-12-18T18:14:33.845Z,82.00
2022-12-18T18:17:04.940Z,38.83
2022-12-18T18:19:34.267Z,35.30
2022-12-18T18:22:02.961Z,36.37
2022-12-18T18:24:31.614Z,150.93
2022-12-18T18:27:00.489Z,231.63
2022-12-18T18:29:31.140Z,36.80
2022-12-18T18:32:00.885Z,41.63
2022-12-18T18:34:31.357Z,39.43
2022-12-18T18:37:01.387Z,36.60
2022-12-18T18:39:29.910Z,37.27
2022-12-18T18:41:57.969Z,36.20
2022-12-18T18:44:26.570Z,40.47
2022-12-18T18:46:55.831Z,39.10
2022-12-18T18:49:27.582Z,38.67
2022-12-18T18:51:58.086Z,37.27
2022-12-18T18:54:28.128Z,41.50
2022-12-18T18:57:19.270Z,45.60
2022-12-18T18:59:44.527Z,38.20
2022-12-18T19:02:14.146Z,42.57
2022-12-18T19:04:46.678Z,38.23
2022-12-18T19:07:22.556Z,36.00
2022-12-18T19:10:03.560Z,38.63
2022-12-18T19:12:57.214Z,38.23
2022-12-18T19:15:25.412Z,34.83
2022-12-18T19:17:54.549Z,37.97
2022-12-18T19:20:24.253Z,39.00
2022-12-18T19:22:55.952Z,36.50
2022-12-18T19:25:40.012Z,40.80
2022-12-18T19:28:15.363Z,38.97
2022-12-18T19:30:53.576Z,34.53
2022-12-18T19:33:43.090Z,38.37
2022-12-18T19:36:16.280Z,38.17
2022-12-18T19:38:45.723Z,92.73
2022-12-18T19:41:17.185Z,40.17
2022-12-18T19:43:47.549Z,43.03
2022-12-18T19:46:18.019Z,38.57
2022-12-18T19:48:46.944Z,37.37
2022-12-18T19:51:19.444Z,42.13
2022-12-18T19:53:47.910Z,41.00
2022-12-18T19:56:17.927Z,41.10
2022-12-18T19:58:46.593Z,36.63
2022-12-18T20:01:16.799Z,43.73
2022-12-18T20:03:50.042Z,38.33
2022-12-18T20:06:27.436Z,40.90
2022-12-18T20:09:00.093Z,42.93
2022-12-18T20:11:29.382Z,37.80
2022-12-18T20:13:57.612Z,42.57
2022-12-18T20:16:26.020Z,36.40
2022-12-18T20:18:54.922Z,40.70
2022-12-18T20:21:24.320Z,36.63
2022-12-18T20:23:52.445Z,40.23
2022-12-18T20:26:20.739Z,39.17
2022-12-18T20:28:48.906Z,43.13
2022-12-18T20:31:16.898Z,37.87
2022-12-18T20:33:48.593Z,41.47
2022-12-18T20:36:21.412Z,37.80
2022-12-18T20:38:54.655Z,40.10
2022-12-18T20:41:26.611Z,41.07
2022-12-18T20:44:00.890Z,37.87
2022-12-18T20:46:29.146Z,42.30
2022-12-18T20:48:57.318Z,41.43
2022-12-18T20:51:26.687Z,46.67
2022-12-18T20:53:56.412Z,39.40
2022-12-18T20:56:24.895Z,38.73
2022-12-18T20:58:54.908Z,40.00
2022-12-18T21:01:25.000Z,41.73
2022-12-18T21:03:53.878Z,38.70
2022-12-18T21:06:23.902Z,38.87
2022-12-18T21:08:52.044Z,38.87
2022-12-18T21:11:47.142Z,39.17
2022-12-18T21:14:17.909Z,38.27
2022-12-18T21:16:47.167Z,37.03
2022-12-18T21:19:18.664Z,37.07
2022-12-18T21:21:47.459Z,38.93
2022-12-18T21:24:15.770Z,43.83
2022-12-18T21:26:49.950Z,39.27
2022-12-18T21:29:20.770Z,39.30
2022-12-18T21:31:49.444Z,43.90
2022-12-18T21:34:19.455Z,39.67
2022-12-18T21:36:48.229Z,38.60
2022-12-18T21:39:17.719Z,39.73
2022-12-18T21:42:06.734Z,37.13
2022-12-18T21:44:37.315Z,36.50
2022-12-18T21:47:14.558Z,36.23
2022-12-18T21:49:49.608Z,43.83
2022-12-18T21:52:18.151Z,41.03
2022-12-18T21:54:46.251Z,40.83
2022-12-18T21:57:15.743Z,39.00
2022-12-18T21:59:44.289Z,43.90
2022-12-18T22:02:14.555Z,41.40
2022-12-18T22:04:43.424Z,45.90
2022-12-18T22:07:12.496Z,42.27
2022-12-18T22:09:40.515Z,42.23
2022-12-18T22:12:09.960Z,47.43
2022-12-18T22:14:39.339Z,45.40
2022-12-18T22:17:07.363Z,40.60
2022-12-18T22:19:41.201Z,44.03
2022-12-18T22:22:11.118Z,38.23
2022-12-18T22:24:39.129Z,46.17
2022-12-18T22:27:07.134Z,42.17
2022-12-18T22:29:52.781Z,47.20
2022-12-18T22:32:30.815Z,44.03
2022-12-18T22:35:05.226Z,44.03
2022-12-18T22:37:34.170Z,38.87
2022-12-18T22:40:03.045Z,45.00
2022-12-18T22:42:31.713Z,45.07
2022-12-18T22:45:00.317Z,41.23
2022-12-18T22:47:30.751Z,41.13
2022-12-18T22:49:59.000Z,42.07
2022-12-18T22:52:27.061Z,39.83
2022-12-18T22:54:55.313Z,39.57
2022-12-18T22:57:24.378Z,45.73
2022-12-18T22:59:52.608Z,39.73
2022-12-18T23:02:20.856Z,41.53
2022-12-18T23:04:50.341Z,42.33
2022-12-18T23:07:18.626Z,40.90
2022-12-18T23:09:46.835Z,40.73
2022-12-18T23:12:17.936Z,41.47
2022-12-18T23:14:47.171Z,42.93
2022-12-18T23:17:15.202Z,42.07
2022-12-18T23:19:48.791Z,44.23
2022-12-18T23:22:18.586Z,41.70
2022-12-18T23:24:47.128Z,42.37
2022-12-18T23:27:15.183Z,39.33
2022-12-18T23:29:43.178Z,44.13
2022-12-18T23:32:13.247Z,44.13
2022-12-18T23:34:41.378Z,44.30
2022-12-18T23:37:09.429Z,46.70
2022-12-18T23:39:38.733Z,52.07
2022-12-18T23:42:06.878Z,46.73
2022-12-18T23:44:34.961Z,45.50
2022-12-18T23:47:02.944Z,43.83
2022-12-18T23:49:31.273Z,46.73
2022-12-18T23:51:59.578Z,47.87
2022-12-18T23:54:33.529Z,42.50
2022-12-18T23:57:03.410Z,45.27
2022-12-18T23:59:31.636Z,44.83
